Time;durP1;ratioP1;P1;durP2;ratioP2;P2;SDS_P1;SDS_P2;PMS_P1;PMS_P2;Temp;Humidity;BMP_temperature;BMP_pressure;BME280_temperature;BME280_humidity;BME280_pressure;Samples;Min_cycle;Max_cycle;Signal;HPM_P1;HPM_P2
2023/07/23 00:02:09;;;;;;;;;;;;;;;30.74;41.32;100515.30;102052;1303;61431;-81
2023/07/23 00:04:34;;;;;;;;;;;;;;;30.74;41.28;100530.36;101968;1303;61848;-81
2023/07/23 00:07:00;;;;;;;;;;;;;;;30.74;41.37;100537.95;101874;1305;61431;-81
2023/07/23 00:09:25;;;;;;;;;;;;;;;30.74;41.25;100537.90;101913;1301;62694;-81
2023/07/23 00:11:51;;;;;;;;;;;;;;;30.74;41.34;100532.67;101952;1308;61488;-81
2023/07/23 00:14:17;;;;;;;;;;;;;;;30.74;41.33;100531.65;102009;1303;61463;-81
2023/07/23 00:16:43;;;;;;;;;;;;;;;30.73;41.43;100536.39;101920;1303;61431;-81
2023/07/23 00:19:13;;;;;;;;;;;;;;;30.74;41.35;100541.99;101900;1303;61948;-81
2023/07/23 00:21:38;;;;;;;;;;;;;;;30.74;41.38;100543.46;102012;1305;61422;-81
2023/07/23 00:24:04;;;;;;;;;;;;;;;30.74;41.26;100543.43;101978;1302;62849;-81
2023/07/23 00:26:30;;;;;;;;;;;;;;;30.73;41.33;100544.04;101963;1305;62627;-81
2023/07/23 00:28:55;;;;;;;;;;;;;;;30.73;41.30;100550.38;101811;1303;61380;-81
2023/07/23 00:31:21;;;;;;;;;;;;;;;30.74;41.31;100555.25;101988;1303;61988;-81
2023/07/23 00:33:46;;;;;;;;;;;;;;;30.73;41.25;100557.32;101966;1308;61407;-81
2023/07/23 00:36:13;;;;;;;;;;;;;;;30.73;41.23;100560.56;101888;1303;62671;-81
2023/07/23 00:38:38;;;;;;;;;;;;;;;30.74;41.33;100562.16;101876;1308;61454;-81
2023/07/23 00:41:04;;;;;;;;;;;;;;;30.73;41.26;100563.31;101958;1303;61967;-81
2023/07/23 00:43:30;;;;;;;;;;;;;;;30.73;41.30;100554.77;101996;1303;61354;-81
2023/07/23 00:45:57;;;;;;;;;;;;;;;30.73;41.34;100554.64;101949;1303;62549;-81
2023/07/23 00:48:22;;;;;;;;;;;;;;;30.73;41.36;100560.41;101947;1303;61415;-81
2023/07/23 00:50:48;;;;;;;;;;;;;;;30.73;41.34;100565.19;101941;1303;61422;-81
2023/07/23 00:53:13;;;;;;;;;;;;;;;30.73;41.38;100571.16;101967;1303;61460;-81
2023/07/23 00:55:39;;;;;;;;;;;;;;;30.73;41.36;100567.52;101780;1303;61573;-81
2023/07/23 00:58:04;;;;;;;;;;;;;;;30.72;41.25;100564.31;101938;1303;61518;-81
2023/07/23 01:00:29;;;;;;;;;;;;;;;30.72;41.44;100565.45;101943;1302;61905;-81
2023/07/23 01:02:55;;;;;;;;;;;;;;;30.72;41.38;100567.79;101943;1303;61380;-81
2023/07/23 01:05:21;;;;;;;;;;;;;;;30.72;41.36;100576.67;101809;1303;66883;-81
2023/07/23 01:07:47;;;;;;;;;;;;;;;30.72;41.32;100582.33;101985;1305;62296;-81
2023/07/23 01:10:12;;;;;;;;;;;;;;;30.72;41.40;100587.99;101887;1303;61346;-81
2023/07/23 01:12:38;;;;;;;;;;;;;;;30.72;41.44;100590.67;101989;1303;61983;-81
2023/07/23 01:15:06;;;;;;;;;;;;;;;30.72;41.40;100598.34;101914;1308;61426;-81
2023/07/23 01:17:32;;;;;;;;;;;;;;;30.71;41.55;100612.58;101959;1302;61933;-81
2023/07/23 01:19:59;;;;;;;;;;;;;;;30.71;41.37;100621.67;101940;1307;61374;-81
2023/07/23 01:22:25;;;;;;;;;;;;;;;30.71;41.38;100629.81;102000;1303;61432;-81
2023/07/23 01:24:50;;;;;;;;;;;;;;;30.71;41.37;100645.06;101882;1303;62771;-81
2023/07/23 01:27:15;;;;;;;;;;;;;;;30.71;41.43;100653.45;102136;1306;61371;-81
2023/07/23 01:29:41;;;;;;;;;;;;;;;30.71;41.22;100666.02;101900;1302;61936;-81
2023/07/23 01:32:06;;;;;;;;;;;;;;;30.72;41.42;100684.48;101950;1305;61428;-81
2023/07/23 01:34:32;;;;;;;;;;;;;;;30.71;41.51;100702.86;101797;1303;61512;-81
2023/07/23 01:36:57;;;;;;;;;;;;;;;30.71;41.35;100714.31;101947;1303;62593;-81
2023/07/23 01:39:22;;;;;;;;;;;;;;;30.71;41.36;100716.32;101927;1308;61374;-81
2023/07/23 01:41:48;;;;;;;;;;;;;;;30.71;41.42;100710.02;101959;1303;61525;-81
2023/07/23 01:44:13;;;;;;;;;;;;;;;30.71;41.36;100708.39;101969;1303;61939;-81
2023/07/23 01:46:39;;;;;;;;;;;;;;;30.70;41.23;100711.11;102078;1303;62317;-82
2023/07/23 01:49:04;;;;;;;;;;;;;;;30.71;41.42;100717.07;101974;1303;61495;-81
2023/07/23 01:51:31;;;;;;;;;;;;;;;30.71;41.38;100715.60;101927;1308;67004;-81
2023/07/23 01:53:56;;;;;;;;;;;;;;;30.70;41.37;100710.61;101921;1306;61342;-81
2023/07/23 01:56:22;;;;;;;;;;;;;;;30.71;41.27;100705.65;101910;1302;61489;-81
2023/07/23 01:58:47;;;;;;;;;;;;;;;30.70;41.47;100700.04;101891;1303;61949;-81
2023/07/23 02:01:12;;;;;;;;;;;;;;;30.70;41.50;100699.16;101942;1303;61444;-81
2023/07/23 02:03:38;;;;;;;;;;;;;;;30.70;41.43;100707.36;102342;1301;62627;-81
2023/07/23 02:06:03;;;;;;;;;;;;;;;30.70;41.45;100722.83;101988;1308;61422;-81
2023/07/23 02:08:30;;;;;;;;;;;;;;;30.70;41.44;100750.79;101914;1303;61444;-82
2023/07/23 02:11:02;;;;;;;;;;;;;;;30.70;41.49;100784.40;101931;1307;61413;-82
2023/07/23 02:13:28;;;;;;;;;;;;;;;30.70;41.43;100812.94;101959;1308;66092;-81
2023/07/23 02:15:54;;;;;;;;;;;;;;;30.70;41.51;100832.18;101998;1303;62611;-81
2023/07/23 02:18:19;;;;;;;;;;;;;;;30.70;41.39;100851.42;101903;1303;61386;-81
2023/07/23 02:20:45;;;;;;;;;;;;;;;30.70;41.38;100864.48;101802;1303;63115;-81
2023/07/23 02:23:10;;;;;;;;;;;;;;;30.70;41.36;100863.94;102026;1305;61451;-81
2023/07/23 02:25:36;;;;;;;;;;;;;;;30.70;41.43;100847.21;101902;1301;61410;-81
2023/07/23 02:28:02;;;;;;;;;;;;;;;30.70;41.59;100829.80;101947;1303;61298;-81
2023/07/23 02:30:28;;;;;;;;;;;;;;;30.70;41.41;100814.20;101973;1302;62277;-81
2023/07/23 02:32:53;;;;;;;;;;;;;;;30.70;41.34;100802.59;101958;1305;61429;-81
2023/07/23 02:35:19;;;;;;;;;;;;;;;30.70;41.47;100780.08;101819;1308;61495;-81
2023/07/23 02:37:44;;;;;;;;;;;;;;;30.70;41.45;100754.44;102072;1305;61975;-81
2023/07/23 02:40:10;;;;;;;;;;;;;;;30.69;41.50;100724.05;101827;1303;61323;-81
2023/07/23 02:42:35;;;;;;;;;;;;;;;30.69;41.43;100698.58;101935;1303;61397;-81
2023/07/23 02:45:01;;;;;;;;;;;;;;;30.69;41.38;100678.83;101977;1305;62681;-81
2023/07/23 02:47:26;;;;;;;;;;;;;;;30.68;41.37;100659.86;101928;1303;61327;-81
2023/07/23 02:49:51;;;;;;;;;;;;;;;30.68;41.47;100654.80;102045;1308;61982;-82
2023/07/23 02:52:17;;;;;;;;;;;;;;;30.67;41.49;100654.27;101934;1303;61751;-82
2023/07/23 02:54:42;;;;;;;;;;;;;;;30.67;41.44;100655.71;101885;1302;62063;-81
2023/07/23 02:57:08;;;;;;;;;;;;;;;30.67;41.44;100655.91;101960;1303;61355;-81
2023/07/23 02:59:33;;;;;;;;;;;;;;;30.66;41.44;100643.29;102113;1303;61404;-81
2023/07/23 03:01:59;;;;;;;;;;;;;;;30.67;41.47;100627.66;101968;1302;62626;-81
2023/07/23 03:04:26;;;;;;;;;;;;;;;30.66;41.48;100621.36;101886;1308;61403;-81
2023/07/23 03:06:53;;;;;;;;;;;;;;;30.66;41.58;100628.23;101889;1303;61483;-81
2023/07/23 03:09:18;;;;;;;;;;;;;;;30.66;41.51;100636.31;102003;1303;61839;-81
2023/07/23 03:11:43;;;;;;;;;;;;;;;30.66;41.61;100644.81;101931;1307;61482;-81
2023/07/23 03:14:09;;;;;;;;;;;;;;;30.66;41.54;100659.48;101957;1303;61374;-81
2023/07/23 03:16:35;;;;;;;;;;;;;;;30.66;41.65;100678.56;101915;1303;61492;-81
2023/07/23 03:19:00;;;;;;;;;;;;;;;30.66;41.64;100690.55;102078;1303;61723;-83
2023/07/23 03:21:26;;;;;;;;;;;;;;;30.67;41.61;100687.08;101923;1302;64029;-82
2023/07/23 03:23:51;;;;;;;;;;;;;;;30.66;41.61;100682.07;101903;1305;61987;-82
2023/07/23 03:26:17;;;;;;;;;;;;;;;30.66;41.54;100673.69;101972;1303;61502;-82
2023/07/23 03:28:42;;;;;;;;;;;;;;;30.66;41.63;100671.35;101986;1302;61436;-82
2023/07/23 03:31:08;;;;;;;;;;;;;;;30.66;41.52;100672.81;101842;1303;61954;-82
2023/07/23 03:33:33;;;;;;;;;;;;;;;30.66;41.69;100671.68;101876;1303;61413;-82
2023/07/23 03:35:59;;;;;;;;;;;;;;;30.66;41.63;100672.23;101970;1302;61423;-82
2023/07/23 03:38:24;;;;;;;;;;;;;;;30.66;41.62;100669.88;101979;1302;61454;-82
2023/07/23 03:40:49;;;;;;;;;;;;;;;30.66;41.64;100666.40;101938;1302;61307;-82
2023/07/23 03:43:15;;;;;;;;;;;;;;;30.66;41.62;100664.98;101995;1303;61501;-82
2023/07/23 03:45:40;;;;;;;;;;;;;;;30.66;41.64;100664.64;101916;1303;62067;-82
2023/07/23 03:48:07;;;;;;;;;;;;;;;30.66;41.72;100670.27;101995;1303;62552;-82
2023/07/23 03:50:33;;;;;;;;;;;;;;;30.66;41.81;100670.59;101966;1303;61425;-82
2023/07/23 03:52:58;;;;;;;;;;;;;;;30.66;41.73;100668.07;101802;1303;61405;-82
2023/07/23 03:55:24;;;;;;;;;;;;;;;30.66;41.74;100666.61;101998;1308;61332;-82
2023/07/23 03:57:49;;;;;;;;;;;;;;;30.66;41.83;100666.61;101923;1303;61418;-82
2023/07/23 04:00:15;;;;;;;;;;;;;;;30.65;41.68;100667.41;101975;1305;65963;-82
2023/07/23 04:02:41;;;;;;;;;;;;;;;30.66;41.67;100666.11;101964;1305;61462;-82
2023/07/23 04:05:07;;;;;;;;;;;;;;;30.66;41.84;100667.20;101976;1303;62776;-82
2023/07/23 04:07:32;;;;;;;;;;;;;;;30.66;41.74;100676.83;102090;1303;61518;-82
2023/07/23 04:09:58;;;;;;;;;;;;;;;30.65;41.77;100690.48;101954;1305;61410;-82
2023/07/23 04:12:23;;;;;;;;;;;;;;;30.66;41.81;100702.95;101907;1308;61418;-82
2023/07/23 04:14:49;;;;;;;;;;;;;;;30.66;41.74;100713.44;102018;1303;61514;-82
2023/07/23 04:17:15;;;;;;;;;;;;;;;30.66;41.77;100721.31;102005;1305;61310;-82
2023/07/23 04:19:41;;;;;;;;;;;;;;;30.65;41.88;100723.69;101860;1307;61403;-82
2023/07/23 04:22:06;;;;;;;;;;;;;;;30.66;41.82;100715.69;101961;1305;61416;-82
2023/07/23 04:24:32;;;;;;;;;;;;;;;30.66;41.90;100721.48;101896;1303;61406;-82
2023/07/23 04:26:57;;;;;;;;;;;;;;;30.66;41.79;100724.96;101844;1302;61406;-82
2023/07/23 04:29:22;;;;;;;;;;;;;;;30.65;41.86;100722.98;101891;1303;62549;-82
2023/07/23 04:31:48;;;;;;;;;;;;;;;30.65;41.98;100718.08;101987;1303;61454;-82
2023/07/23 04:34:13;;;;;;;;;;;;;;;30.65;41.92;100720.80;101911;1308;62040;-82
2023/07/23 04:36:39;;;;;;;;;;;;;;;30.65;41.92;100721.52;102020;1305;61431;-82
2023/07/23 04:39:04;;;;;;;;;;;;;;;30.65;41.89;100724.27;101957;1302;61336;-82
2023/07/23 04:41:30;;;;;;;;;;;;;;;30.65;41.86;100723.69;101980;1303;61460;-82
2023/07/23 04:43:55;;;;;;;;;;;;;;;30.65;41.91;100735.16;101935;1305;61402;-82
2023/07/23 04:46:21;;;;;;;;;;;;;;;30.65;41.88;100739.57;101968;1303;61795;-82
2023/07/23 04:48:46;;;;;;;;;;;;;;;30.65;41.96;100739.38;101904;1301;62046;-82
2023/07/23 04:51:12;;;;;;;;;;;;;;;30.65;41.99;100735.24;101797;1307;61480;-82
2023/07/23 04:53:37;;;;;;;;;;;;;;;30.65;41.91;100735.79;101909;1302;61456;-82
2023/07/23 04:56:03;;;;;;;;;;;;;;;30.64;41.91;100735.11;101891;1308;61484;-82
2023/07/23 04:58:29;;;;;;;;;;;;;;;30.64;41.86;100738.38;102063;1302;61835;-81
2023/07/23 05:00:55;;;;;;;;;;;;;;;30.65;42.05;100741.80;101866;1303;62697;-81
2023/07/23 05:03:21;;;;;;;;;;;;;;;30.65;42.04;100749.54;101897;1303;61508;-82
2023/07/23 05:05:48;;;;;;;;;;;;;;;30.64;42.10;100754.14;101959;1303;62586;-82
2023/07/23 05:08:14;;;;;;;;;;;;;;;30.65;41.95;100757.57;101928;1308;64720;-82
2023/07/23 05:10:39;;;;;;;;;;;;;;;30.65;41.98;100757.37;101943;1301;61997;-82
2023/07/23 05:13:05;;;;;;;;;;;;;;;30.65;41.94;100753.02;101959;1303;61415;-82
2023/07/23 05:15:30;;;;;;;;;;;;;;;30.65;42.04;100761.70;101887;1303;61428;-82
2023/07/23 05:17:56;;;;;;;;;;;;;;;30.65;42.03;100766.23;102164;1303;62579;-82
2023/07/23 05:20:21;;;;;;;;;;;;;;;30.65;42.02;100772.77;101958;1305;62127;-82
2023/07/23 05:22:47;;;;;;;;;;;;;;;30.65;42.05;100776.59;101857;1308;62745;-82
2023/07/23 05:25:12;;;;;;;;;;;;;;;30.65;42.09;100774.44;101825;1303;62850;-82
2023/07/23 05:27:38;;;;;;;;;;;;;;;30.65;42.19;100771.48;101930;1301;61428;-82
2023/07/23 05:30:03;;;;;;;;;;;;;;;30.65;42.08;100772.02;102022;1303;61961;-82
2023/07/23 05:32:29;;;;;;;;;;;;;;;30.66;42.01;100774.84;101974;1306;61413;-82
2023/07/23 05:34:55;;;;;;;;;;;;;;;30.66;42.10;100776.80;101896;1308;61511;-82
2023/07/23 05:37:20;;;;;;;;;;;;;;;30.66;42.19;100778.06;101963;1303;61390;-82
2023/07/23 05:39:47;;;;;;;;;;;;;;;30.66;42.13;100782.61;101960;1303;61414;-82
2023/07/23 05:42:13;;;;;;;;;;;;;;;30.67;42.17;100776.37;101986;1304;61977;-82
2023/07/23 05:44:38;;;;;;;;;;;;;;;30.67;42.14;100771.94;101898;1308;61463;-82
2023/07/23 05:47:04;;;;;;;;;;;;;;;30.69;42.16;100775.27;101992;1305;61864;-82
2023/07/23 05:49:29;;;;;;;;;;;;;;;30.70;42.02;100777.35;101978;1305;62556;-82
2023/07/23 05:51:57;;;;;;;;;;;;;;;30.69;42.00;100776.64;101790;1303;61521;-81
2023/07/23 05:54:24;;;;;;;;;;;;;;;30.69;41.97;100782.09;102001;1303;63832;-81
2023/07/23 05:56:50;;;;;;;;;;;;;;;30.70;42.04;100788.05;101783;1308;62664;-81
2023/07/23 05:59:15;;;;;;;;;;;;;;;30.70;42.01;100788.60;101873;1303;61419;-82
2023/07/23 06:01:40;;;;;;;;;;;;;;;30.71;42.02;100789.02;102017;1303;62008;-82
2023/07/23 06:04:06;;;;;;;;;;;;;;;30.72;42.06;100790.66;101939;1308;61384;-82
2023/07/23 06:06:31;;;;;;;;;;;;;;;30.73;41.98;100790.63;101963;1305;63990;-82
2023/07/23 06:08:57;;;;;;;;;;;;;;;30.73;42.10;100785.84;102019;1302;61518;-82
2023/07/23 06:11:23;;;;;;;;;;;;;;;30.73;42.11;100788.88;102015;1305;62534;-82
2023/07/23 06:13:48;;;;;;;;;;;;;;;30.74;42.05;100792.06;102047;1303;61354;-82
2023/07/23 06:16:14;;;;;;;;;;;;;;;30.75;41.99;100792.15;101998;1302;62017;-81
2023/07/23 06:18:39;;;;;;;;;;;;;;;30.75;42.10;100798.65;101742;1303;63887;-81
2023/07/23 06:21:05;;;;;;;;;;;;;;;30.76;41.98;100806.02;101957;1302;61495;-81
2023/07/23 06:23:34;;;;;;;;;;;;;;;30.77;41.99;100806.66;101869;1303;61968;-81
2023/07/23 06:25:59;;;;;;;;;;;;;;;30.78;42.04;100806.93;101910;1303;61390;-82
2023/07/23 06:28:25;;;;;;;;;;;;;;;30.78;41.95;100808.70;101983;1303;61467;-82
2023/07/23 06:30:50;;;;;;;;;;;;;;;30.79;41.99;100815.76;101950;1302;61426;-82
2023/07/23 06:33:16;;;;;;;;;;;;;;;30.78;41.98;100815.78;101795;1308;62684;-82
2023/07/23 06:35:42;;;;;;;;;;;;;;;30.79;42.05;100818.81;101902;1303;61403;-82
2023/07/23 06:38:08;;;;;;;;;;;;;;;30.80;41.95;100818.53;101920;1306;61396;-82
2023/07/23 06:40:34;;;;;;;;;;;;;;;30.80;41.90;100816.14;102054;1302;62061;-82
2023/07/23 06:43:00;;;;;;;;;;;;;;;30.81;41.96;100814.59;101860;1307;61441;-82
2023/07/23 06:45:26;;;;;;;;;;;;;;;30.81;41.97;100814.02;101880;1305;61997;-82
2023/07/23 06:47:51;;;;;;;;;;;;;;;30.82;41.90;100816.33;101863;1308;61420;-82
2023/07/23 06:50:18;;;;;;;;;;;;;;;30.82;42.00;100822.45;101939;1302;62007;-82
2023/07/23 06:52:43;;;;;;;;;;;;;;;30.82;42.02;100823.04;101826;1303;63686;-82
2023/07/23 06:55:09;;;;;;;;;;;;;;;30.82;41.97;100825.69;101999;1305;61386;-82
2023/07/23 06:57:34;;;;;;;;;;;;;;;30.83;41.97;100825.31;102025;1305;61611;-82
2023/07/23 07:00:00;;;;;;;;;;;;;;;30.82;41.89;100833.17;101825;1303;62783;-81
2023/07/23 07:02:26;;;;;;;;;;;;;;;30.82;41.97;100837.50;101975;1303;61381;-81
2023/07/23 07:04:51;;;;;;;;;;;;;;;30.82;41.93;100846.60;102047;1305;61417;-81
2023/07/23 07:07:17;;;;;;;;;;;;;;;30.82;41.97;100845.04;101903;1308;61524;-81
2023/07/23 07:09:42;;;;;;;;;;;;;;;30.82;42.10;100847.94;101473;1302;674714;-81
2023/07/23 07:12:08;;;;;;;;;;;;;;;30.81;42.09;100854.71;101986;1303;62100;-81
2023/07/23 07:14:33;;;;;;;;;;;;;;;30.81;41.98;100858.35;101955;1303;61333;-81
2023/07/23 07:16:59;;;;;;;;;;;;;;;30.81;42.06;100863.12;102031;1305;61584;-81
2023/07/23 07:19:24;;;;;;;;;;;;;;;30.81;42.06;100867.48;101990;1303;61993;-81
2023/07/23 07:21:50;;;;;;;;;;;;;;;30.80;42.05;100867.52;101918;1303;61429;-81
2023/07/23 07:24:16;;;;;;;;;;;;;;;30.80;42.03;100869.00;101930;1303;63031;-81
2023/07/23 07:26:42;;;;;;;;;;;;;;;30.79;42.05;100874.71;102054;1304;61342;-81
2023/07/23 07:29:07;;;;;;;;;;;;;;;30.80;42.00;100876.71;101949;1306;61871;-81
2023/07/23 07:31:33;;;;;;;;;;;;;;;30.79;42.18;100875.09;101928;1317;61346;-81
2023/07/23 07:33:59;;;;;;;;;;;;;;;30.79;42.13;100875.46;102036;1305;61418;-81
2023/07/23 07:36:24;;;;;;;;;;;;;;;30.78;42.00;100875.73;101927;1302;61419;-81
2023/07/23 07:38:50;;;;;;;;;;;;;;;30.79;42.05;100882.23;101984;1305;62696;-81
2023/07/23 07:41:15;;;;;;;;;;;;;;;30.79;42.04;100881.13;101967;1301;62118;-81
2023/07/23 07:43:41;;;;;;;;;;;;;;;30.79;42.03;100876.45;102009;1302;61425;-81
2023/07/23 07:46:08;;;;;;;;;;;;;;;30.78;42.01;100874.10;101967;1305;61758;-81
2023/07/23 07:48:35;;;;;;;;;;;;;;;30.79;41.99;100870.26;101918;1303;61415;-81
2023/07/23 07:51:04;;;;;;;;;;;;;;;30.79;42.04;100871.67;101937;1307;63677;-81
2023/07/23 07:53:30;;;;;;;;;;;;;;;30.79;42.02;100866.52;101933;1306;66842;-81
2023/07/23 07:55:56;;;;;;;;;;;;;;;30.81;42.12;100874.94;101890;1308;61339;-81
2023/07/23 07:58:24;;;;;;;;;;;;;;;30.81;42.08;100881.45;102025;1305;61424;-82
2023/07/23 08:00:54;;;;;;;;;;;;;;;30.81;42.10;100887.79;101956;1306;64656;-82
2023/07/23 08:03:21;;;;;;;;;;;;;;;30.81;42.14;100887.05;101965;1304;66929;-81
2023/07/23 08:05:47;;;;;;;;;;;;;;;30.81;42.11;100889.40;102101;1302;61412;-81
2023/07/23 08:08:13;;;;;;;;;;;;;;;30.82;42.18;100893.89;101896;1302;61607;-81
2023/07/23 08:10:39;;;;;;;;;;;;;;;30.82;42.12;100894.39;101901;1303;61508;-81
2023/07/23 08:13:04;;;;;;;;;;;;;;;30.82;42.10;100889.70;101821;1303;62185;-82
2023/07/23 08:15:30;;;;;;;;;;;;;;;30.82;42.07;100888.91;101925;1303;61502;-82
2023/07/23 08:17:57;;;;;;;;;;;;;;;30.82;42.11;100897.88;101959;1305;62717;-81
2023/07/23 08:20:22;;;;;;;;;;;;;;;30.82;42.08;100902.58;101882;1308;61518;-81
2023/07/23 08:22:48;;;;;;;;;;;;;;;30.82;42.15;100902.73;102043;1305;61506;-81
2023/07/23 08:25:14;;;;;;;;;;;;;;;30.83;42.08;100905.56;101965;1304;65637;-81
2023/07/23 08:27:40;;;;;;;;;;;;;;;30.83;42.12;100909.42;101871;1306;62055;-81
2023/07/23 08:30:05;;;;;;;;;;;;;;;30.82;42.06;100911.25;102010;1305;61417;-82
2023/07/23 08:32:31;;;;;;;;;;;;;;;30.82;42.08;100918.61;102041;1309;62408;-82
2023/07/23 08:34:56;;;;;;;;;;;;;;;30.82;41.98;100921.67;102023;1303;61514;-81
2023/07/23 08:37:22;;;;;;;;;;;;;;;30.82;42.07;100920.90;101915;1301;67045;-81
2023/07/23 08:39:48;;;;;;;;;;;;;;;30.82;42.04;100924.53;102015;1305;62127;-81
2023/07/23 08:42:22;;;;;;;;;;;;;;;30.82;42.10;100932.16;101958;1308;62726;-81
2023/07/23 08:44:57;;;;;;;;;;;;;;;30.82;42.05;100937.45;101747;1308;64709;-81
2023/07/23 08:47:22;;;;;;;;;;;;;;;30.82;42.02;100940.92;101968;1302;65777;-81
2023/07/23 08:49:48;;;;;;;;;;;;;;;30.81;42.12;100941.17;101953;1306;62245;-81
2023/07/23 08:52:13;;;;;;;;;;;;;;;30.81;42.04;100939.44;102077;1305;61503;-81
2023/07/23 08:54:41;;;;;;;;;;;;;;;30.81;42.01;100941.76;101913;1307;61473;-81
2023/07/23 08:57:07;;;;;;;;;;;;;;;30.80;42.12;100947.47;101961;1305;61435;-81
2023/07/23 08:59:33;;;;;;;;;;;;;;;30.80;42.17;100948.05;101982;1307;61422;-81
2023/07/23 09:01:58;;;;;;;;;;;;;;;30.80;42.02;100946.98;102001;1305;62748;-81
2023/07/23 09:04:24;;;;;;;;;;;;;;;30.80;42.04;100944.88;101864;1306;62641;-81
2023/07/23 09:06:50;;;;;;;;;;;;;;;30.79;42.13;100945.02;101919;1303;70780;-81
2023/07/23 09:09:16;;;;;;;;;;;;;;;30.80;42.07;100945.90;101914;1308;61442;-81
2023/07/23 09:11:42;;;;;;;;;;;;;;;30.79;42.04;100946.86;101924;1306;62497;-81
2023/07/23 09:14:08;;;;;;;;;;;;;;;30.79;42.03;100953.94;101983;1305;61319;-81
2023/07/23 09:16:40;;;;;;;;;;;;;;;30.79;42.08;100944.88;101969;1305;61518;-81
2023/07/23 09:19:07;;;;;;;;;;;;;;;30.79;42.05;100947.77;102033;1305;65670;-81
2023/07/23 09:21:34;;;;;;;;;;;;;;;30.79;42.01;100950.66;101832;1306;61352;-81
2023/07/23 09:24:02;;;;;;;;;;;;;;;30.79;42.03;100947.77;101828;1303;62349;-81
2023/07/23 09:26:28;;;;;;;;;;;;;;;30.79;42.07;100954.12;101987;1304;64797;-81
2023/07/23 09:28:53;;;;;;;;;;;;;;;30.80;42.10;100952.06;101952;1315;61432;-81
2023/07/23 09:31:21;;;;;;;;;;;;;;;30.80;42.04;100956.98;101915;1306;61416;-81
2023/07/23 09:33:46;;;;;;;;;;;;;;;30.79;42.12;100970.08;101838;1306;63351;-81
2023/07/23 09:36:12;;;;;;;;;;;;;;;30.80;42.19;100982.38;101962;1306;61441;-81
2023/07/23 09:38:45;;;;;;;;;;;;;;;30.79;42.15;100987.95;101975;1317;61384;-81
2023/07/23 09:41:11;;;;;;;;;;;;;;;30.78;42.07;100997.27;101906;1308;61310;-81
2023/07/23 09:43:36;;;;;;;;;;;;;;;30.78;42.07;101003.81;101998;1304;61531;-81
2023/07/23 09:46:02;;;;;;;;;;;;;;;30.78;42.06;101007.48;101938;1305;61360;-82
2023/07/23 09:48:27;;;;;;;;;;;;;;;30.78;42.08;101015.66;101794;1306;61495;-81
2023/07/23 09:50:56;;;;;;;;;;;;;;;30.78;42.15;101005.35;102006;1305;61527;-81
2023/07/23 09:53:22;;;;;;;;;;;;;;;30.78;42.02;101013.90;101991;1305;61368;-81
2023/07/23 09:55:47;;;;;;;;;;;;;;;30.77;41.98;101015.02;101964;1305;62014;-81
2023/07/23 09:58:13;;;;;;;;;;;;;;;30.77;42.11;101016.70;101773;1317;61442;-81
2023/07/23 10:00:38;;;;;;;;;;;;;;;30.76;42.16;101023.60;101837;1306;61518;-81
2023/07/23 10:03:04;;;;;;;;;;;;;;;30.76;42.12;101021.63;102016;1304;61322;-81
2023/07/23 10:05:30;;;;;;;;;;;;;;;30.76;42.06;101018.73;102008;1302;61428;-81
2023/07/23 10:07:55;;;;;;;;;;;;;;;30.76;42.07;101018.52;101891;1308;61414;-81
2023/07/23 10:10:21;;;;;;;;;;;;;;;30.77;42.01;101014.67;101971;1306;61534;-81
2023/07/23 10:12:47;;;;;;;;;;;;;;;30.77;42.03;101009.98;102007;1309;61955;-81
2023/07/23 10:15:12;;;;;;;;;;;;;;;30.77;42.07;101010.83;101936;1302;61465;-81
2023/07/23 10:17:39;;;;;;;;;;;;;;;30.77;42.13;101003.58;101960;1303;61450;-81
2023/07/23 10:20:05;;;;;;;;;;;;;;;30.77;42.10;100995.06;102041;1302;61460;-81
2023/07/23 10:22:32;;;;;;;;;;;;;;;30.78;42.22;100994.04;101912;1308;61352;-81
2023/07/23 10:24:57;;;;;;;;;;;;;;;30.77;42.12;100998.47;101932;1302;61769;-81
2023/07/23 10:27:23;;;;;;;;;;;;;;;30.78;42.08;101002.45;101950;1302;61377;-81
2023/07/23 10:30:07;;;;;;;;;;;;;;;30.77;42.05;101002.66;101776;1306;61502;-81
2023/07/23 10:32:33;;;;;;;;;;;;;;;30.77;42.00;101007.56;101959;1304;64897;-81
2023/07/23 10:34:58;;;;;;;;;;;;;;;30.77;42.02;101012.30;101955;1306;61488;-81
2023/07/23 10:37:24;;;;;;;;;;;;;;;30.77;42.05;101002.32;101969;1303;61355;-81
2023/07/23 10:39:53;;;;;;;;;;;;;;;30.77;42.05;101002.15;102033;1303;61416;-81
2023/07/23 10:42:45;;;;;;;;;;;;;;;30.77;42.18;101001.41;101890;1308;61413;-81
2023/07/23 10:45:15;;;;;;;;;;;;;;;30.77;42.10;101006.14;101980;1305;67233;-80
2023/07/23 10:47:46;;;;;;;;;;;;;;;30.77;42.18;101003.58;101961;1303;61660;-80
2023/07/23 10:50:12;;;;;;;;;;;;;;;30.78;42.00;100994.98;101720;1308;61464;-80
2023/07/23 10:52:37;;;;;;;;;;;;;;;30.78;42.09;100995.70;101728;1309;62630;-80
2023/07/23 10:55:03;;;;;;;;;;;;;;;30.78;42.05;100988.08;101806;1316;61447;-80
2023/07/23 10:57:30;;;;;;;;;;;;;;;30.78;42.04;100985.35;101798;1307;61903;-80
2023/07/23 10:59:56;;;;;;;;;;;;;;;30.77;42.14;100984.88;101769;1305;61603;-80
2023/07/23 11:02:25;;;;;;;;;;;;;;;30.77;42.03;100989.56;101818;1310;61900;-80
2023/07/23 11:04:50;;;;;;;;;;;;;;;30.78;42.15;100991.14;101818;1309;61508;-80
2023/07/23 11:07:24;;;;;;;;;;;;;;;30.78;42.03;100991.82;101733;1309;61506;-80
2023/07/23 11:09:50;;;;;;;;;;;;;;;30.79;42.10;100990.36;101786;1309;61606;-80
2023/07/23 11:12:15;;;;;;;;;;;;;;;30.78;42.07;100988.71;101696;1308;61525;-80
2023/07/23 11:14:41;;;;;;;;;;;;;;;30.79;42.06;100988.31;101833;1308;61616;-80
2023/07/23 11:17:06;;;;;;;;;;;;;;;30.79;41.96;100984.88;101784;1309;61438;-80
2023/07/23 11:19:32;;;;;;;;;;;;;;;30.79;42.06;100984.85;101881;1306;61326;-80
2023/07/23 11:21:58;;;;;;;;;;;;;;;30.79;41.92;100980.73;101856;1303;61442;-80
2023/07/23 11:24:27;;;;;;;;;;;;;;;30.79;41.89;100985.05;102020;1305;61951;-80
2023/07/23 11:26:55;;;;;;;;;;;;;;;30.79;41.92;100987.02;102014;1305;66818;-80
2023/07/23 11:29:22;;;;;;;;;;;;;;;30.79;41.92;100980.81;101983;1305;61914;-80
2023/07/23 11:31:47;;;;;;;;;;;;;;;30.79;41.90;100973.39;101978;1308;62008;-80
2023/07/23 11:34:13;;;;;;;;;;;;;;;30.79;41.89;100974.48;102002;1301;61441;-80
2023/07/23 11:36:39;;;;;;;;;;;;;;;30.80;41.92;100974.95;101995;1303;61886;-80
2023/07/23 11:39:05;;;;;;;;;;;;;;;30.79;41.97;100966.30;101918;1306;61566;-82
2023/07/23 11:41:32;;;;;;;;;;;;;;;30.79;41.94;100969.92;101967;1302;62690;-82
2023/07/23 11:43:58;;;;;;;;;;;;;;;30.79;41.79;100974.81;101888;1308;61515;-82
2023/07/23 11:46:23;;;;;;;;;;;;;;;30.79;41.96;100972.27;101942;1306;61383;-82
2023/07/23 11:48:53;;;;;;;;;;;;;;;30.80;41.88;100966.54;102045;1303;61395;-82
2023/07/23 11:51:19;;;;;;;;;;;;;;;30.80;41.83;100962.79;101948;1306;61425;-82
2023/07/23 11:53:44;;;;;;;;;;;;;;;30.80;41.94;100963.14;102190;1303;61984;-82
2023/07/23 11:56:10;;;;;;;;;;;;;;;30.80;41.98;100957.14;101843;1303;61390;-82
2023/07/23 11:58:36;;;;;;;;;;;;;;;30.80;41.89;100954.18;101913;1307;61422;-82
2023/07/23 12:01:02;;;;;;;;;;;;;;;30.81;41.95;100953.42;102004;1303;62601;-82
2023/07/23 12:03:27;;;;;;;;;;;;;;;30.81;41.95;100953.23;102011;1303;61448;-82
2023/07/23 12:05:53;;;;;;;;;;;;;;;30.81;41.88;100955.41;102020;1307;61422;-82
2023/07/23 12:08:18;;;;;;;;;;;;;;;30.81;41.92;100951.94;101932;1307;61584;-82
2023/07/23 12:10:44;;;;;;;;;;;;;;;30.81;41.80;100948.11;101921;1300;62051;-82
2023/07/23 12:13:10;;;;;;;;;;;;;;;30.81;41.79;100948.84;101932;1303;61453;-82
2023/07/23 12:15:38;;;;;;;;;;;;;;;30.81;41.93;100949.92;101967;1308;62456;-82
2023/07/23 12:18:04;;;;;;;;;;;;;;;30.81;41.95;100950.05;101912;1307;61447;-82
2023/07/23 12:20:29;;;;;;;;;;;;;;;30.82;41.84;100942.35;101930;1305;61387;-82